Terminal Aerodrome Forecast
Issued by NWS

Home | Current Version | Previous Version | Graphics & Text | Print | Product List | Glossary On
Versions: 1 2 3 4 5 6 7 8 9 10 11 12 13 14 15 16 17 18 19 20 21 22 23
000
FTUS43 KBIS 231100
TAFMOT
TAF
KMOT 231133Z 2312/2412 12006KT P6SM SCT002 BKN050
      TEMPO 2312/2314 4SM BR BKN002
     FM231400 13014KT P6SM SCT050
     FM240100 11012KT P6SM BKN050
      TEMPO 2405/2409 -TSRA OVC040CB=

USA.gov is the U.S. government's official web portal to all federal, state and local government web resources and services.